createdAt,value
2022-07-29T00:01:50.433Z,1.48
2022-07-29T00:04:17.616Z,1.35
2022-07-29T00:06:44.529Z,1.25
2022-07-29T00:09:11.158Z,1.83
2022-07-29T00:11:37.739Z,1.73
2022-07-29T00:14:04.349Z,1.63
2022-07-29T00:16:30.985Z,1.52
2022-07-29T00:19:00.638Z,1.73
2022-07-29T00:21:28.818Z,1.80
2022-07-29T00:23:55.421Z,2.28
2022-07-29T00:26:22.061Z,1.70
2022-07-29T00:28:48.647Z,2.35
2022-07-29T00:31:15.339Z,2.53
2022-07-29T00:33:42.046Z,1.60
2022-07-29T00:36:08.621Z,1.35
2022-07-29T00:38:35.246Z,1.88
2022-07-29T00:41:02.115Z,1.90
2022-07-29T00:43:28.852Z,2.10
2022-07-29T00:45:55.460Z,1.88
2022-07-29T00:48:22.131Z,1.90
2022-07-29T00:50:48.717Z,1.83
2022-07-29T00:53:15.330Z,1.85
2022-07-29T00:55:42.000Z,1.35
2022-07-29T00:58:08.607Z,1.58
2022-07-29T01:00:35.391Z,2.15
2022-07-29T01:03:02.028Z,1.73
2022-07-29T01:05:50.594Z,1.45
2022-07-29T01:08:16.200Z,1.40
2022-07-29T01:10:42.817Z,1.65
2022-07-29T01:13:09.437Z,1.42
2022-07-29T01:15:41.654Z,1.63
2022-07-29T01:18:23.435Z,1.25
2022-07-29T01:21:17.622Z,1.42
2022-07-29T01:24:12.287Z,1.10
2022-07-29T01:27:00.468Z,1.10
2022-07-29T01:29:35.937Z,1.20
2022-07-29T01:32:27.724Z,1.10
2022-07-29T01:35:18.046Z,1.25
2022-07-29T01:37:51.266Z,1.00
2022-07-29T01:40:30.028Z,0.80
2022-07-29T01:42:58.015Z,0.80
2022-07-29T01:45:35.262Z,1.00
2022-07-29T01:48:19.569Z,1.13
2022-07-29T01:50:53.036Z,0.80
2022-07-29T01:53:26.642Z,0.88
2022-07-29T01:55:53.231Z,0.82
2022-07-29T01:58:20.245Z,1.17
2022-07-29T02:00:47.565Z,1.00
2022-07-29T02:03:14.205Z,0.80
2022-07-29T02:05:42.216Z,1.00
2022-07-29T02:08:08.888Z,1.50
2022-07-29T02:10:35.641Z,0.90
2022-07-29T02:13:02.379Z,0.88
2022-07-29T02:15:30.972Z,1.42
2022-07-29T02:18:00.993Z,0.77
2022-07-29T02:20:27.777Z,1.10
2022-07-29T02:22:54.443Z,1.10
2022-07-29T02:25:21.600Z,1.20
2022-07-29T02:27:48.348Z,1.45
2022-07-29T02:30:15.005Z,1.58
2022-07-29T02:32:42.277Z,1.17
2022-07-29T02:35:09.639Z,1.10
2022-07-29T02:37:37.129Z,0.90
2022-07-29T02:40:03.979Z,1.30
2022-07-29T02:42:30.648Z,1.17
2022-07-29T02:44:57.271Z,1.50
2022-07-29T02:47:41.516Z,1.00
2022-07-29T02:50:14.049Z,1.45
2022-07-29T02:53:17.330Z,1.15
2022-07-29T02:58:29.957Z,1.23
2022-07-29T03:00:57.814Z,1.45
2022-07-29T03:03:26.180Z,1.48
2022-07-29T03:05:56.028Z,0.93
2022-07-29T03:08:22.730Z,1.30
2022-07-29T03:10:49.329Z,1.08
2022-07-29T03:13:16.258Z,1.20
2022-07-29T03:15:44.995Z,1.35
2022-07-29T03:18:11.667Z,1.13
2022-07-29T03:20:38.796Z,1.38
2022-07-29T03:23:05.492Z,1.40
2022-07-29T03:25:32.211Z,1.60
2022-07-29T03:27:58.801Z,1.77
2022-07-29T03:30:25.521Z,1.30
2022-07-29T03:32:52.663Z,1.02
2022-07-29T03:35:20.915Z,0.90
2022-07-29T03:37:47.645Z,1.10
2022-07-29T03:40:18.242Z,1.42
2022-07-29T03:42:44.910Z,1.23
2022-07-29T03:45:14.616Z,1.33
2022-07-29T03:47:50.856Z,1.45
2022-07-29T03:50:20.196Z,1.08
2022-07-29T03:52:47.099Z,1.48
2022-07-29T03:55:13.800Z,1.50
2022-07-29T03:57:41.445Z,2.00
2022-07-29T04:00:08.727Z,2.83
2022-07-29T04:02:35.423Z,1.23
2022-07-29T04:05:02.071Z,1.65
2022-07-29T04:07:28.737Z,1.75
2022-07-29T04:09:55.341Z,1.10
2022-07-29T04:12:22.189Z,1.60
2022-07-29T04:14:49.590Z,1.80
2022-07-29T04:17:16.434Z,1.35
2022-07-29T04:19:43.315Z,1.40
2022-07-29T04:22:10.264Z,1.58
2022-07-29T04:24:36.894Z,3.03
2022-07-29T04:27:03.558Z,1.65
2022-07-29T04:29:30.282Z,2.05
2022-07-29T04:31:56.910Z,1.42
2022-07-29T04:34:23.593Z,1.42
2022-07-29T04:36:55.151Z,1.52
2022-07-29T04:39:23.206Z,1.27
2022-07-29T04:41:51.022Z,1.52
2022-07-29T04:44:19.653Z,1.65
2022-07-29T04:46:46.765Z,2.30
2022-07-29T04:49:14.083Z,1.33
2022-07-29T04:51:41.019Z,2.00
2022-07-29T04:54:07.713Z,1.58
2022-07-29T04:56:34.425Z,1.70
2022-07-29T04:59:00.978Z,1.70
2022-07-29T05:01:27.737Z,2.00
2022-07-29T05:03:59.844Z,1.88
2022-07-29T05:08:53.623Z,1.92
2022-07-29T05:11:22.464Z,1.90
2022-07-29T05:13:50.952Z,1.77
2022-07-29T05:16:17.615Z,1.80
2022-07-29T05:18:44.370Z,2.22
2022-07-29T05:21:11.022Z,1.65
2022-07-29T05:23:37.711Z,2.28
2022-07-29T05:26:04.427Z,2.42
2022-07-29T05:28:34.967Z,2.35
2022-07-29T05:31:01.771Z,2.50
2022-07-29T05:33:35.109Z,1.90
2022-07-29T05:36:06.404Z,2.70
2022-07-29T05:38:33.298Z,2.47
2022-07-29T05:41:00.408Z,2.60
2022-07-29T05:43:28.369Z,2.78
2022-07-29T05:45:55.151Z,3.67
2022-07-29T05:48:21.874Z,1.77
2022-07-29T05:50:48.437Z,2.03
2022-07-29T05:53:19.921Z,1.88
2022-07-29T05:55:48.902Z,1.98
2022-07-29T05:58:15.493Z,1.80
2022-07-29T06:00:42.172Z,2.35
2022-07-29T06:03:08.835Z,1.75
2022-07-29T06:05:35.486Z,1.77
2022-07-29T06:08:02.425Z,3.67
2022-07-29T06:10:29.025Z,2.20
2022-07-29T06:12:55.759Z,2.08
2022-07-29T06:15:22.389Z,2.03
2022-07-29T06:18:00.672Z,2.10
2022-07-29T06:20:31.083Z,1.92
2022-07-29T06:22:58.348Z,2.60
2022-07-29T06:25:24.992Z,2.40
2022-07-29T06:27:51.694Z,2.00
2022-07-29T06:30:18.349Z,1.70
2022-07-29T06:32:45.061Z,2.20
2022-07-29T06:35:39.166Z,2.50
2022-07-29T06:37:59.704Z,1.83
2022-07-29T06:40:46.850Z,2.28
2022-07-29T06:43:14.354Z,1.77
2022-07-29T06:45:42.430Z,2.22
2022-07-29T06:48:10.005Z,2.20
2022-07-29T06:50:36.666Z,4.05
2022-07-29T06:53:03.558Z,2.03
2022-07-29T06:55:30.219Z,2.08
2022-07-29T06:57:56.865Z,1.70
2022-07-29T07:00:23.455Z,1.77
2022-07-29T07:02:50.225Z,2.08
2022-07-29T07:05:16.885Z,1.83
2022-07-29T07:07:43.537Z,1.55
2022-07-29T07:10:10.298Z,1.80
2022-07-29T07:12:37.016Z,1.58
2022-07-29T07:15:04.060Z,2.63
2022-07-29T07:17:30.749Z,1.60
2022-07-29T07:19:57.350Z,2.55
2022-07-29T07:22:23.965Z,7.68
2022-07-29T07:24:50.555Z,2.00
2022-07-29T07:27:17.145Z,1.90
2022-07-29T07:29:44.396Z,1.63
2022-07-29T07:32:11.339Z,1.33
2022-07-29T07:34:38.895Z,1.65
2022-07-29T07:37:06.028Z,1.73
2022-07-29T07:39:32.743Z,1.10
2022-07-29T07:41:59.451Z,1.60
2022-07-29T07:44:26.053Z,1.35
2022-07-29T07:46:53.116Z,1.45
2022-07-29T07:49:21.518Z,1.50
2022-07-29T07:51:50.676Z,1.60
2022-07-29T07:54:18.695Z,1.63
2022-07-29T07:56:49.953Z,1.58
2022-07-29T07:59:19.703Z,1.55
2022-07-29T08:01:47.957Z,1.98
2022-07-29T08:04:27.090Z,0.73
2022-07-29T08:06:56.072Z,2.25
2022-07-29T08:09:29.389Z,1.33
2022-07-29T08:11:57.342Z,2.03
2022-07-29T08:14:24.103Z,1.58
2022-07-29T08:16:50.869Z,1.50
2022-07-29T08:19:17.630Z,1.33
2022-07-29T08:21:44.251Z,3.35
2022-07-29T08:24:30.815Z,1.33
2022-07-29T08:26:57.394Z,1.50
2022-07-29T08:29:24.220Z,2.03
2022-07-29T08:31:51.251Z,2.10
2022-07-29T08:34:18.063Z,3.97
2022-07-29T08:36:44.756Z,1.55
2022-07-29T08:39:16.866Z,2.38
2022-07-29T08:41:57.168Z,1.73
2022-07-29T08:44:31.020Z,1.88
2022-07-29T08:46:58.209Z,1.52
2022-07-29T08:49:25.085Z,2.30
2022-07-29T08:51:51.771Z,2.05
2022-07-29T08:54:19.328Z,2.85
2022-07-29T08:56:49.011Z,2.03
2022-07-29T08:59:15.623Z,2.00
2022-07-29T09:01:45.001Z,1.67
2022-07-29T09:04:12.560Z,4.78
2022-07-29T09:06:43.089Z,3.53
2022-07-29T09:09:10.262Z,2.10
2022-07-29T09:11:37.033Z,3.10
2022-07-29T09:14:03.682Z,1.58
2022-07-29T09:16:53.157Z,1.90
2022-07-29T09:19:32.531Z,2.38
2022-07-29T09:22:03.600Z,2.63
2022-07-29T09:24:47.665Z,1.77
2022-07-29T09:27:29.867Z,2.10
2022-07-29T09:29:58.376Z,2.13
2022-07-29T09:32:25.208Z,1.85
2022-07-29T09:34:55.682Z,2.17
2022-07-29T09:37:28.954Z,2.05
2022-07-29T09:39:55.593Z,2.78
2022-07-29T09:42:30.305Z,3.40
2022-07-29T09:44:56.920Z,3.08
2022-07-29T09:47:26.818Z,2.20
2022-07-29T09:50:00.986Z,2.33
2022-07-29T09:52:28.870Z,2.38
2022-07-29T09:55:06.133Z,2.50
2022-07-29T09:57:32.775Z,2.45
2022-07-29T10:00:06.995Z,2.42
2022-07-29T10:02:34.860Z,2.40
2022-07-29T10:05:02.465Z,2.30
2022-07-29T10:07:44.600Z,2.63
2022-07-29T10:10:11.379Z,2.50
2022-07-29T10:12:49.977Z,2.80
2022-07-29T10:15:16.651Z,2.72
2022-07-29T10:17:43.554Z,3.13
2022-07-29T10:20:13.605Z,3.47
2022-07-29T10:22:52.928Z,2.70
2022-07-29T10:25:20.691Z,2.70
2022-07-29T10:27:48.300Z,2.15
2022-07-29T10:30:16.032Z,3.60
2022-07-29T10:36:08.189Z,2.55
2022-07-29T10:38:48.336Z,2.70
2022-07-29T10:41:47.466Z,2.78
2022-07-29T10:44:23.703Z,2.92
2022-07-29T10:46:51.465Z,3.75
2022-07-29T10:49:24.766Z,3.10
2022-07-29T10:52:11.344Z,2.50
2022-07-29T10:57:53.228Z,2.50
2022-07-29T11:02:57.540Z,2.30
2022-07-29T11:05:30.759Z,2.63
2022-07-29T11:10:51.568Z,2.70
2022-07-29T11:16:25.245Z,2.78
2022-07-29T11:21:54.996Z,2.03
2022-07-29T11:24:30.132Z,2.38
2022-07-29T11:27:19.952Z,1.83
2022-07-29T11:29:55.784Z,1.77
2022-07-29T11:32:24.041Z,2.30
2022-07-29T11:35:16.582Z,2.03
2022-07-29T11:37:49.606Z,2.10
2022-07-29T11:40:21.351Z,2.10
2022-07-29T11:42:48.352Z,2.63
2022-07-29T11:45:43.256Z,3.10
2022-07-29T11:48:29.012Z,2.67
2022-07-29T11:50:55.047Z,2.45
2022-07-29T11:53:22.127Z,3.45
2022-07-29T11:55:51.261Z,2.10
2022-07-29T11:58:22.937Z,2.60
2022-07-29T12:00:51.984Z,2.97
2022-07-29T12:03:33.028Z,2.50
2022-07-29T12:06:02.317Z,2.63
2022-07-29T12:08:28.989Z,2.70
2022-07-29T12:10:55.571Z,2.50
2022-07-29T12:13:22.785Z,2.97
2022-07-29T12:16:04.211Z,2.58
2022-07-29T12:18:30.896Z,2.78
2022-07-29T12:20:58.783Z,2.50
2022-07-29T12:23:25.666Z,2.45
2022-07-29T12:25:56.410Z,2.78
2022-07-29T12:28:26.559Z,2.47
2022-07-29T12:30:53.735Z,2.30
2022-07-29T12:33:25.341Z,2.90
2022-07-29T12:36:07.513Z,3.35
2022-07-29T12:38:35.796Z,2.67
2022-07-29T12:41:02.679Z,2.75
2022-07-29T12:43:31.384Z,2.67
2022-07-29T12:45:58.117Z,2.95
2022-07-29T12:48:41.150Z,2.40
2022-07-29T12:51:09.584Z,2.60
2022-07-29T12:53:36.790Z,2.20
2022-07-29T12:56:15.604Z,2.72
2022-07-29T12:58:51.087Z,2.58
2022-07-29T13:01:20.231Z,2.08
2022-07-29T13:09:14.220Z,2.35
2022-07-29T13:11:47.918Z,2.38
2022-07-29T13:14:35.681Z,3.50
2022-07-29T13:17:05.117Z,3.58
2022-07-29T13:19:44.566Z,3.78
2022-07-29T13:22:12.096Z,2.85
2022-07-29T13:24:56.387Z,3.70
2022-07-29T13:27:24.605Z,2.63
2022-07-29T13:29:53.207Z,3.10
2022-07-29T13:32:27.736Z,2.90
2022-07-29T13:34:56.311Z,3.15
2022-07-29T13:37:22.932Z,2.60
2022-07-29T13:39:52.741Z,2.92
2022-07-29T13:42:20.118Z,2.72
2022-07-29T13:44:46.818Z,2.95
2022-07-29T13:47:13.792Z,2.97
2022-07-29T13:49:40.395Z,3.13
2022-07-29T13:52:08.151Z,2.80
2022-07-29T13:54:42.065Z,2.80
2022-07-29T13:57:09.314Z,3.97
2022-07-29T13:59:36.070Z,2.78
2022-07-29T14:02:02.904Z,2.65
2022-07-29T14:04:29.676Z,2.78
2022-07-29T14:06:56.343Z,2.90
2022-07-29T14:09:22.916Z,2.58
2022-07-29T14:11:51.354Z,3.03
2022-07-29T14:14:18.239Z,2.45
2022-07-29T14:16:47.850Z,2.83
2022-07-29T14:19:18.605Z,3.00
2022-07-29T14:21:54.409Z,2.88
2022-07-29T14:24:23.936Z,2.83
2022-07-29T14:26:52.624Z,2.53
2022-07-29T14:29:19.316Z,3.17
2022-07-29T14:31:46.034Z,2.60
2022-07-29T14:34:12.883Z,2.40
2022-07-29T14:36:39.612Z,2.63
2022-07-29T14:39:06.194Z,2.65
2022-07-29T14:41:32.835Z,2.80
2022-07-29T14:44:01.490Z,3.00
2022-07-29T14:46:28.631Z,2.75
2022-07-29T14:48:55.442Z,2.75
2022-07-29T14:51:22.476Z,2.55
2022-07-29T14:53:49.130Z,2.00
2022-07-29T14:56:36.053Z,2.42
2022-07-29T14:59:02.423Z,3.13
2022-07-29T15:01:29.981Z,3.13
2022-07-29T15:03:59.692Z,3.08
2022-07-29T15:06:27.264Z,2.38
2022-07-29T15:08:53.986Z,2.30
2022-07-29T15:11:20.738Z,2.17
2022-07-29T15:13:47.356Z,2.20
2022-07-29T15:16:13.984Z,2.42
2022-07-29T15:18:40.905Z,2.67
2022-07-29T15:21:08.281Z,3.63
2022-07-29T15:23:37.170Z,2.78
2022-07-29T15:26:04.624Z,2.92
2022-07-29T15:28:31.333Z,3.00
2022-07-29T15:30:58.178Z,3.92
2022-07-29T15:33:25.571Z,3.28
2022-07-29T15:35:52.295Z,3.65
2022-07-29T15:38:18.963Z,3.20
2022-07-29T15:40:47.040Z,3.33
2022-07-29T15:43:14.051Z,2.42
2022-07-29T15:45:41.586Z,3.00
2022-07-29T15:48:09.019Z,3.55
2022-07-29T15:50:35.758Z,3.20
2022-07-29T15:53:02.487Z,4.32
2022-07-29T15:55:29.104Z,4.13
2022-07-29T15:58:00.268Z,4.07
2022-07-29T16:00:27.524Z,3.53
2022-07-29T16:02:54.150Z,4.20
2022-07-29T16:05:21.021Z,4.13
2022-07-29T16:07:47.672Z,3.20
2022-07-29T16:10:14.383Z,3.83
2022-07-29T16:12:41.199Z,3.67
2022-07-29T16:15:10.417Z,4.05
2022-07-29T16:17:38.018Z,3.50
2022-07-29T16:20:05.897Z,3.85
2022-07-29T16:22:32.681Z,3.85
2022-07-29T16:24:59.359Z,3.50
2022-07-29T16:27:35.355Z,3.40
2022-07-29T16:30:06.231Z,3.78
2022-07-29T16:32:33.532Z,3.42
2022-07-29T16:35:02.223Z,3.85
2022-07-29T16:37:35.334Z,3.72
2022-07-29T16:40:02.867Z,2.92
2022-07-29T16:42:46.108Z,4.03
2022-07-29T16:45:13.646Z,3.00
2022-07-29T16:47:40.515Z,3.58
2022-07-29T16:50:07.816Z,3.45
2022-07-29T16:52:34.414Z,3.53
2022-07-29T16:55:01.057Z,3.42
2022-07-29T16:57:27.770Z,3.55
2022-07-29T16:59:54.342Z,4.03
2022-07-29T17:02:20.999Z,3.95
2022-07-29T17:04:47.656Z,3.38
2022-07-29T17:07:14.783Z,3.20
2022-07-29T17:09:41.580Z,4.07
2022-07-29T17:12:08.557Z,3.75
2022-07-29T17:14:35.188Z,3.88
2022-07-29T17:17:02.801Z,3.53
2022-07-29T17:19:31.604Z,3.55
2022-07-29T17:22:06.788Z,3.80
2022-07-29T17:24:37.063Z,3.38
2022-07-29T17:27:04.920Z,3.65
2022-07-29T17:29:31.568Z,3.67
2022-07-29T17:31:59.413Z,3.42
2022-07-29T17:34:26.151Z,2.70
2022-07-29T17:36:52.835Z,2.42
2022-07-29T17:39:19.409Z,3.10
2022-07-29T17:41:46.752Z,4.28
2022-07-29T17:44:13.485Z,4.85
2022-07-29T17:46:40.643Z,4.55
2022-07-29T17:49:07.505Z,2.90
2022-07-29T17:51:34.274Z,2.55
2022-07-29T17:54:01.042Z,2.40
2022-07-29T17:56:27.625Z,2.17
2022-07-29T17:58:54.369Z,2.30
2022-07-29T18:01:21.229Z,2.97
2022-07-29T18:03:47.939Z,2.55
2022-07-29T18:06:14.603Z,2.67
2022-07-29T18:08:41.350Z,2.08
2022-07-29T18:11:07.962Z,2.60
2022-07-29T18:13:34.550Z,2.38
2022-07-29T18:16:01.295Z,2.72
2022-07-29T18:18:28.256Z,3.20
2022-07-29T18:20:55.031Z,2.60
2022-07-29T18:23:21.722Z,2.67
2022-07-29T18:25:48.423Z,3.45
2022-07-29T18:28:15.184Z,2.55
2022-07-29T18:30:41.908Z,2.47
2022-07-29T18:33:21.790Z,2.75
2022-07-29T18:35:49.939Z,2.28
2022-07-29T18:38:16.942Z,2.92
2022-07-29T18:40:45.329Z,3.58
2022-07-29T18:43:12.381Z,2.55
2022-07-29T18:45:39.497Z,2.70
2022-07-29T18:48:08.441Z,5.70
2022-07-29T18:50:39.732Z,1.80
2022-07-29T18:53:06.788Z,2.17
2022-07-29T18:55:33.425Z,1.70
2022-07-29T18:58:00.073Z,2.05
2022-07-29T19:00:26.907Z,2.65
2022-07-29T19:02:53.815Z,2.88
2022-07-29T19:05:20.658Z,2.35
2022-07-29T19:07:47.278Z,2.47
2022-07-29T19:10:13.948Z,2.10
2022-07-29T19:12:40.543Z,2.38
2022-07-29T19:15:07.967Z,2.20
2022-07-29T19:17:34.676Z,2.30
2022-07-29T19:20:02.132Z,2.63
2022-07-29T19:22:28.809Z,2.17
2022-07-29T19:24:55.422Z,2.38
2022-07-29T19:27:22.114Z,1.83
2022-07-29T19:29:48.751Z,2.50
2022-07-29T19:32:24.674Z,2.88
2022-07-29T19:35:12.099Z,4.13
2022-07-29T19:37:38.844Z,2.65
2022-07-29T19:40:06.587Z,3.17
2022-07-29T19:42:33.249Z,3.30
2022-07-29T19:44:59.920Z,2.80
2022-07-29T19:47:26.514Z,3.10
2022-07-29T19:49:53.208Z,2.80
2022-07-29T19:52:19.808Z,2.95
2022-07-29T19:54:46.420Z,3.40
2022-07-29T19:57:13.034Z,2.88
2022-07-29T19:59:40.982Z,2.97
2022-07-29T20:02:10.673Z,3.05
2022-07-29T20:04:37.603Z,3.08
2022-07-29T20:07:04.903Z,3.13
2022-07-29T20:09:31.731Z,3.03
2022-07-29T20:11:58.568Z,3.17
2022-07-29T20:14:25.191Z,2.70
2022-07-29T20:16:53.947Z,2.50
2022-07-29T20:19:20.580Z,3.10
2022-07-29T20:21:47.188Z,2.40
2022-07-29T20:24:13.869Z,2.72
2022-07-29T20:26:40.463Z,2.28
2022-07-29T20:29:07.113Z,3.28
2022-07-29T20:31:33.795Z,3.47
2022-07-29T20:34:01.414Z,2.45
2022-07-29T20:36:28.523Z,3.63
2022-07-29T20:38:55.603Z,3.25
2022-07-29T20:41:22.447Z,4.07
2022-07-29T20:43:50.127Z,3.85
2022-07-29T20:46:18.580Z,5.40
2022-07-29T20:48:46.718Z,2.85
2022-07-29T20:51:13.775Z,2.90
2022-07-29T20:53:40.728Z,2.85
2022-07-29T20:56:07.570Z,3.45
2022-07-29T20:58:34.552Z,3.25
2022-07-29T21:01:01.373Z,3.50
2022-07-29T21:03:27.951Z,3.35
2022-07-29T21:05:54.560Z,3.47
2022-07-29T21:08:21.308Z,3.30
2022-07-29T21:10:48.087Z,4.50
2022-07-29T21:13:14.779Z,3.58
2022-07-29T21:15:45.211Z,3.38
2022-07-29T21:18:32.613Z,3.55
2022-07-29T21:21:00.998Z,3.17
2022-07-29T21:23:27.677Z,3.05
2022-07-29T21:25:54.400Z,3.78
2022-07-29T21:28:29.255Z,3.28
2022-07-29T21:30:57.025Z,3.90
2022-07-29T21:33:24.443Z,3.60
2022-07-29T21:38:37.844Z,3.92
2022-07-29T21:41:04.642Z,3.50
2022-07-29T21:43:31.351Z,4.40
2022-07-29T21:45:58.737Z,3.85
2022-07-29T21:48:26.625Z,3.75
2022-07-29T21:50:53.588Z,3.70
2022-07-29T21:53:22.079Z,3.42
2022-07-29T21:55:50.836Z,3.90
2022-07-29T21:58:18.253Z,3.95
2022-07-29T22:00:44.974Z,4.88
2022-07-29T22:03:11.641Z,4.70
2022-07-29T22:05:38.331Z,4.45
2022-07-29T22:08:05.260Z,4.00
2022-07-29T22:10:31.954Z,3.55
2022-07-29T22:12:59.546Z,5.03
2022-07-29T22:15:26.357Z,4.60
2022-07-29T22:17:53.087Z,3.65
2022-07-29T22:20:19.800Z,3.50
2022-07-29T22:22:46.857Z,4.10
2022-07-29T22:25:13.452Z,4.00
2022-07-29T22:27:40.087Z,3.78
2022-07-29T22:30:07.646Z,3.95
2022-07-29T22:32:34.453Z,4.07
2022-07-29T22:35:01.144Z,4.18
2022-07-29T22:37:27.838Z,3.75
2022-07-29T22:39:54.473Z,3.40
2022-07-29T22:42:21.050Z,3.70
2022-07-29T22:44:47.632Z,3.70
2022-07-29T22:47:14.343Z,3.65
2022-07-29T22:49:41.045Z,3.30
2022-07-29T22:52:07.757Z,2.95
2022-07-29T22:54:34.415Z,2.65
2022-07-29T22:57:01.860Z,2.92
2022-07-29T22:59:28.739Z,2.90
2022-07-29T23:01:55.487Z,3.35
2022-07-29T23:04:23.615Z,3.30
2022-07-29T23:06:50.992Z,3.15
2022-07-29T23:09:17.614Z,2.90
2022-07-29T23:11:44.266Z,2.85
2022-07-29T23:14:10.898Z,2.63
2022-07-29T23:16:37.741Z,2.80
2022-07-29T23:19:04.460Z,3.40
2022-07-29T23:21:31.066Z,2.65
2022-07-29T23:23:57.676Z,3.00
2022-07-29T23:26:24.320Z,3.50
2022-07-29T23:28:50.921Z,2.80
2022-07-29T23:31:18.742Z,3.65
2022-07-29T23:33:45.660Z,4.00
2022-07-29T23:36:12.312Z,3.47
2022-07-29T23:38:40.788Z,3.60
2022-07-29T23:41:09.742Z,2.92
2022-07-29T23:43:37.268Z,2.67
2022-07-29T23:46:03.951Z,3.10
2022-07-29T23:48:32.670Z,3.25
2022-07-29T23:51:00.967Z,3.28
2022-07-29T23:53:28.218Z,3.10
2022-07-29T23:55:55.305Z,2.95
2022-07-29T23:58:21.925Z,2.60
